createdAt,value
2022-08-29T00:00:18.910Z,93.53
2022-08-29T00:01:25.106Z,95.02
2022-08-29T00:02:30.585Z,95.95
2022-08-29T00:03:38.549Z,94.23
2022-08-29T00:04:46.201Z,95.02
2022-08-29T00:05:51.660Z,93.35
2022-08-29T00:06:55.957Z,95.03
2022-08-29T00:08:02.012Z,94.76
2022-08-29T00:09:05.465Z,95.67
2022-08-29T00:10:10.697Z,94.65
2022-08-29T00:11:14.846Z,95.90
2022-08-29T00:12:20.216Z,95.43
2022-08-29T00:13:25.852Z,97.98
2022-08-29T00:14:32.590Z,98.22
2022-08-29T00:15:44.350Z,97.90
2022-08-29T00:16:43.650Z,97.97
2022-08-29T00:17:47.684Z,97.68
2022-08-29T00:18:51.404Z,95.53
2022-08-29T00:19:55.089Z,94.30
2022-08-29T00:21:00.263Z,95.11
2022-08-29T00:22:07.016Z,94.42
2022-08-29T00:23:10.261Z,94.09
2022-08-29T00:24:15.107Z,92.87
2022-08-29T00:25:18.768Z,92.51
2022-08-29T00:26:26.661Z,92.59
2022-08-29T00:27:38.168Z,92.85
2022-08-29T00:28:42.138Z,95.90
2022-08-29T00:29:47.951Z,93.75
2022-08-29T00:30:52.386Z,93.20
2022-08-29T00:31:55.832Z,92.48
2022-08-29T00:32:59.619Z,89.81
2022-08-29T00:34:04.359Z,89.11
2022-08-29T00:36:26.343Z,90.72
2022-08-29T00:37:32.041Z,92.89
2022-08-29T00:38:35.777Z,93.87
2022-08-29T00:39:46.394Z,91.56
2022-08-29T00:40:52.457Z,94.96
2022-08-29T00:41:55.281Z,91.94
2022-08-29T00:43:02.589Z,92.96
2022-08-29T00:44:07.142Z,91.66
2022-08-29T00:45:13.206Z,89.50
2022-08-29T00:46:20.183Z,90.38
2022-08-29T00:47:27.826Z,89.81
2022-08-29T00:48:32.332Z,89.18
2022-08-29T00:49:39.948Z,88.35
2022-08-29T00:50:55.844Z,88.84
2022-08-29T00:52:04.295Z,86.13
2022-08-29T00:54:27.637Z,86.19
2022-08-29T00:55:34.662Z,85.31
2022-08-29T00:56:40.416Z,87.47
2022-08-29T00:57:50.677Z,86.69
2022-08-29T00:59:10.571Z,87.23
2022-08-29T01:00:19.461Z,86.51
2022-08-29T01:01:25.828Z,87.24
2022-08-29T01:02:28.703Z,87.61
2022-08-29T01:03:35.929Z,89.19
2022-08-29T01:04:41.810Z,90.31
2022-08-29T01:05:47.790Z,88.85
2022-08-29T01:06:54.753Z,89.69
2022-08-29T01:08:01.852Z,91.22
2022-08-29T01:09:12.580Z,90.27
2022-08-29T01:10:20.263Z,89.45
2022-08-29T01:11:43.242Z,89.79
2022-08-29T01:12:48.347Z,89.77
2022-08-29T01:13:53.249Z,89.34
2022-08-29T01:15:02.462Z,88.66
2022-08-29T01:16:10.379Z,88.04
2022-08-29T01:17:20.584Z,89.76
2022-08-29T01:18:28.002Z,90.44
2022-08-29T01:21:02.218Z,90.29
2022-08-29T01:22:19.199Z,90.36
2022-08-29T01:23:28.545Z,89.82
2022-08-29T01:24:40.165Z,90.34
2022-08-29T01:25:49.461Z,91.31
2022-08-29T01:26:52.566Z,91.58
2022-08-29T01:27:59.973Z,91.40
2022-08-29T01:29:05.645Z,89.97
2022-08-29T01:30:11.193Z,89.95
2022-08-29T01:31:20.009Z,91.37
2022-08-29T01:32:26.248Z,91.30
2022-08-29T01:33:46.015Z,90.98
2022-08-29T01:34:53.232Z,90.71
2022-08-29T01:35:56.506Z,90.72
2022-08-29T01:37:04.528Z,92.43
2022-08-29T01:38:07.908Z,93.40
2022-08-29T01:39:11.825Z,94.43
2022-08-29T01:40:16.106Z,92.60
2022-08-29T01:41:22.136Z,92.65
2022-08-29T01:42:26.398Z,91.12
2022-08-29T01:43:32.329Z,90.23
2022-08-29T01:44:36.672Z,91.43
2022-08-29T01:45:41.645Z,91.42
2022-08-29T01:46:47.280Z,90.36
2022-08-29T01:47:51.034Z,89.98
2022-08-29T01:48:54.653Z,90.40
2022-08-29T01:49:59.098Z,90.57
2022-08-29T01:51:01.736Z,91.17
2022-08-29T01:52:09.911Z,91.16
2022-08-29T01:53:20.734Z,92.98
2022-08-29T01:54:25.872Z,92.58
2022-08-29T01:55:29.643Z,94.21
2022-08-29T01:56:37.065Z,93.83
2022-08-29T01:57:42.156Z,94.70
2022-08-29T01:58:48.036Z,94.76
2022-08-29T01:59:52.498Z,94.80
2022-08-29T02:00:57.438Z,93.82
2022-08-29T02:02:11.227Z,93.31
2022-08-29T02:03:27.532Z,93.11
2022-08-29T02:04:32.112Z,93.20
2022-08-29T02:05:37.226Z,94.60
2022-08-29T02:06:44.753Z,95.18
2022-08-29T02:07:50.566Z,94.04
2022-08-29T02:08:57.431Z,93.50
2022-08-29T02:10:01.996Z,94.17
2022-08-29T02:11:09.244Z,94.73
2022-08-29T02:12:14.332Z,93.66
2022-08-29T02:13:19.722Z,94.54
2022-08-29T02:14:24.877Z,94.59
2022-08-29T02:15:27.879Z,94.28
2022-08-29T02:16:34.547Z,94.22
2022-08-29T02:17:39.491Z,93.58
2022-08-29T02:18:44.063Z,94.70
2022-08-29T02:19:46.906Z,93.07
2022-08-29T02:20:50.993Z,94.15
2022-08-29T02:21:54.689Z,93.41
2022-08-29T02:23:00.063Z,94.39
2022-08-29T02:24:24.028Z,95.71
2022-08-29T02:25:29.657Z,95.40
2022-08-29T02:26:33.741Z,96.42
2022-08-29T02:27:37.661Z,94.86
2022-08-29T02:28:42.352Z,95.38
2022-08-29T02:29:47.758Z,96.67
2022-08-29T02:30:56.622Z,95.99
2022-08-29T02:32:00.333Z,97.24
2022-08-29T02:33:06.212Z,96.13
2022-08-29T02:34:11.889Z,95.97
2022-08-29T02:35:16.187Z,97.76
2022-08-29T02:36:25.584Z,97.07
2022-08-29T02:37:35.062Z,96.17
2022-08-29T02:38:41.993Z,96.28
2022-08-29T02:39:46.719Z,96.11
2022-08-29T02:40:51.421Z,97.16
2022-08-29T02:41:54.510Z,96.72
2022-08-29T02:42:58.380Z,96.29
2022-08-29T02:44:03.452Z,96.56
2022-08-29T02:45:08.765Z,96.01
2022-08-29T02:46:18.950Z,95.65
2022-08-29T02:47:22.633Z,95.78
2022-08-29T02:49:41.447Z,96.49
2022-08-29T02:50:49.336Z,95.99
2022-08-29T02:51:56.496Z,95.96
2022-08-29T02:53:00.318Z,95.95
2022-08-29T02:54:03.516Z,97.21
2022-08-29T02:55:10.460Z,96.27
2022-08-29T02:56:15.113Z,96.00
2022-08-29T02:57:20.086Z,96.09
2022-08-29T02:58:25.569Z,96.01
2022-08-29T02:59:29.598Z,97.29
2022-08-29T03:00:34.592Z,97.73
2022-08-29T03:01:38.925Z,96.29
2022-08-29T03:02:45.541Z,96.29
2022-08-29T03:03:55.801Z,96.58
2022-08-29T03:05:02.300Z,96.60
2022-08-29T03:06:07.906Z,97.78
2022-08-29T03:07:11.490Z,97.60
2022-08-29T03:08:16.490Z,97.92
2022-08-29T03:09:23.759Z,99.31
2022-08-29T03:10:27.244Z,97.60
2022-08-29T03:11:34.509Z,97.64
2022-08-29T03:12:38.635Z,98.14
2022-08-29T03:13:42.249Z,98.66
2022-08-29T03:14:48.888Z,98.18
2022-08-29T03:15:52.600Z,97.60
2022-08-29T03:16:56.543Z,98.48
2022-08-29T03:18:05.062Z,97.75
2022-08-29T03:19:08.610Z,98.78
2022-08-29T03:20:17.260Z,98.35
2022-08-29T03:21:24.192Z,98.17
2022-08-29T03:22:32.025Z,99.75
2022-08-29T03:23:35.903Z,99.02
2022-08-29T03:24:38.878Z,99.09
2022-08-29T03:25:45.211Z,98.11
2022-08-29T03:26:56.640Z,97.45
2022-08-29T03:28:00.631Z,97.77
2022-08-29T03:29:03.804Z,98.40
2022-08-29T03:30:11.611Z,97.64
2022-08-29T03:31:17.682Z,97.35
2022-08-29T03:32:22.217Z,96.95
2022-08-29T03:33:25.257Z,97.34
2022-08-29T03:34:31.499Z,99.30
2022-08-29T03:35:35.177Z,97.04
2022-08-29T03:36:39.740Z,98.06
2022-08-29T03:37:43.123Z,98.08
2022-08-29T03:38:47.673Z,98.97
2022-08-29T03:39:55.189Z,97.67
2022-08-29T03:41:02.328Z,97.26
2022-08-29T03:42:09.157Z,97.04
2022-08-29T03:43:12.934Z,97.08
2022-08-29T03:44:16.965Z,96.48
2022-08-29T03:45:21.096Z,98.33
2022-08-29T03:46:30.435Z,96.86
2022-08-29T03:47:36.775Z,97.16
2022-08-29T03:48:40.554Z,96.87
2022-08-29T03:49:44.037Z,98.21
2022-08-29T03:50:47.917Z,97.76
2022-08-29T03:51:51.941Z,97.67
2022-08-29T03:52:57.639Z,96.41
2022-08-29T03:54:01.675Z,95.85
2022-08-29T03:55:07.127Z,95.09
2022-08-29T03:56:18.837Z,94.71
2022-08-29T03:57:18.742Z,96.04
2022-08-29T03:58:22.791Z,94.99
2022-08-29T03:59:27.863Z,94.81
2022-08-29T04:00:33.614Z,94.53
2022-08-29T04:01:37.642Z,95.19
2022-08-29T04:02:41.268Z,94.23
2022-08-29T04:03:44.771Z,94.08
2022-08-29T04:05:08.202Z,93.89
2022-08-29T04:06:12.450Z,94.21
2022-08-29T04:07:18.197Z,94.39
2022-08-29T04:08:23.635Z,93.14
2022-08-29T04:09:27.919Z,93.68
2022-08-29T04:10:35.662Z,94.10
2022-08-29T04:11:39.937Z,93.08
2022-08-29T04:12:43.728Z,91.50
2022-08-29T04:13:48.309Z,90.68
2022-08-29T04:14:51.924Z,91.68
2022-08-29T04:15:56.708Z,92.45
2022-08-29T04:17:00.420Z,91.34
2022-08-29T04:18:15.630Z,90.66
2022-08-29T04:19:22.565Z,92.56
2022-08-29T04:20:30.511Z,91.23
2022-08-29T04:21:35.935Z,90.46
2022-08-29T04:22:49.182Z,88.87
2022-08-29T04:23:53.173Z,89.96
2022-08-29T04:24:56.990Z,88.75
2022-08-29T04:26:19.148Z,88.40
2022-08-29T04:27:06.194Z,87.42
2022-08-29T04:28:14.804Z,87.05
2022-08-29T04:29:18.349Z,87.11
2022-08-29T04:30:28.652Z,86.24
2022-08-29T04:31:32.294Z,87.54
2022-08-29T04:32:36.221Z,88.10
2022-08-29T04:33:41.172Z,88.19
2022-08-29T04:34:47.124Z,88.60
2022-08-29T04:35:51.775Z,88.55
2022-08-29T04:36:56.678Z,88.97
2022-08-29T04:38:00.374Z,87.76
2022-08-29T04:39:04.328Z,88.01
2022-08-29T04:40:11.075Z,86.27
2022-08-29T04:41:15.004Z,87.29
2022-08-29T04:42:22.808Z,86.44
2022-08-29T04:43:26.482Z,86.53
2022-08-29T04:44:29.952Z,85.75
2022-08-29T04:45:37.274Z,85.65
2022-08-29T04:46:41.311Z,85.75
2022-08-29T04:47:46.346Z,85.05
2022-08-29T04:48:51.906Z,84.34
2022-08-29T04:49:58.775Z,84.56
2022-08-29T04:51:04.177Z,84.01
2022-08-29T04:52:11.045Z,82.92
2022-08-29T04:53:23.181Z,81.58
2022-08-29T04:54:26.632Z,81.93
2022-08-29T04:55:32.318Z,81.59
2022-08-29T04:56:44.315Z,81.68
2022-08-29T04:57:45.356Z,80.80
2022-08-29T04:58:51.472Z,80.62
2022-08-29T05:00:00.615Z,79.40
2022-08-29T05:01:04.716Z,78.35
2022-08-29T05:02:08.751Z,78.48
2022-08-29T05:03:16.452Z,77.09
2022-08-29T05:04:19.519Z,76.37
2022-08-29T05:05:22.747Z,75.92
2022-08-29T05:06:26.673Z,76.49
2022-08-29T05:07:29.468Z,72.89
2022-08-29T05:08:35.722Z,68.72
2022-08-29T05:09:41.051Z,67.34
2022-08-29T05:10:57.281Z,67.31
2022-08-29T05:12:00.927Z,66.88
2022-08-29T05:13:08.583Z,69.17
2022-08-29T05:14:14.885Z,70.60
2022-08-29T05:15:19.743Z,71.41
2022-08-29T05:16:25.477Z,70.10
2022-08-29T05:17:28.597Z,69.97
2022-08-29T05:18:31.962Z,70.22
2022-08-29T05:19:36.308Z,70.08
2022-08-29T05:20:41.896Z,69.84
2022-08-29T05:21:46.492Z,69.51
2022-08-29T05:22:51.898Z,68.04
2022-08-29T05:23:56.593Z,69.63
2022-08-29T05:24:59.640Z,68.94
2022-08-29T05:26:06.907Z,69.48
2022-08-29T05:27:15.111Z,68.44
2022-08-29T05:28:18.440Z,68.29
2022-08-29T05:29:21.596Z,68.64
2022-08-29T05:30:34.407Z,68.55
2022-08-29T05:31:32.935Z,66.84
2022-08-29T05:32:36.955Z,66.94
2022-08-29T05:33:41.213Z,67.09
2022-08-29T05:34:45.848Z,66.76
2022-08-29T05:35:50.949Z,66.74
2022-08-29T05:36:55.620Z,65.60
2022-08-29T05:38:00.502Z,63.19
2022-08-29T05:39:04.423Z,63.27
2022-08-29T05:40:12.147Z,64.60
2022-08-29T05:41:16.572Z,64.45
2022-08-29T05:42:25.758Z,64.63
2022-08-29T05:43:29.721Z,66.57
2022-08-29T05:44:35.664Z,64.58
2022-08-29T05:45:40.445Z,64.58
2022-08-29T05:46:47.104Z,64.07
2022-08-29T05:47:50.766Z,65.32
2022-08-29T05:48:55.558Z,64.34
2022-08-29T05:49:58.636Z,62.41
2022-08-29T05:51:02.648Z,62.01
2022-08-29T05:52:07.430Z,62.64
2022-08-29T05:53:16.668Z,62.45
2022-08-29T05:54:20.646Z,61.76
2022-08-29T05:55:26.189Z,61.23
2022-08-29T05:56:31.920Z,61.03
2022-08-29T05:57:38.950Z,60.23
2022-08-29T05:58:42.034Z,59.56
2022-08-29T05:59:46.091Z,60.03
2022-08-29T06:00:51.345Z,59.38
2022-08-29T06:01:55.209Z,59.43
2022-08-29T06:02:59.129Z,57.58
2022-08-29T06:04:05.476Z,56.10
2022-08-29T06:05:13.500Z,55.30
2022-08-29T06:06:21.448Z,55.99
2022-08-29T06:07:32.227Z,56.57
2022-08-29T06:08:38.466Z,56.62
2022-08-29T06:09:44.041Z,56.59
2022-08-29T06:10:48.105Z,55.62
2022-08-29T06:11:52.756Z,55.66
2022-08-29T06:12:56.366Z,56.17
2022-08-29T06:14:01.229Z,56.59
2022-08-29T06:15:07.443Z,55.75
2022-08-29T06:17:27.262Z,54.55
2022-08-29T06:18:35.538Z,53.42
2022-08-29T06:19:41.226Z,53.94
2022-08-29T06:20:45.796Z,53.68
2022-08-29T06:21:53.190Z,54.26
2022-08-29T06:22:56.648Z,54.46
2022-08-29T06:24:01.553Z,54.39
2022-08-29T06:25:35.173Z,54.59
2022-08-29T06:26:14.884Z,53.77
2022-08-29T06:27:18.593Z,53.43
2022-08-29T06:28:23.978Z,53.49
2022-08-29T06:29:28.424Z,53.68
2022-08-29T06:30:34.223Z,53.43
2022-08-29T06:31:39.253Z,54.04
2022-08-29T06:32:46.789Z,52.15
2022-08-29T06:33:55.428Z,51.51
2022-08-29T06:35:01.405Z,51.38
2022-08-29T06:36:09.134Z,51.15
2022-08-29T06:37:14.902Z,50.73
2022-08-29T06:38:18.991Z,50.43
2022-08-29T06:39:23.368Z,51.88
2022-08-29T06:40:30.114Z,50.93
2022-08-29T06:41:35.631Z,49.81
2022-08-29T06:42:40.311Z,48.85
2022-08-29T06:43:47.992Z,46.38
2022-08-29T06:44:55.239Z,43.01
2022-08-29T06:45:59.167Z,39.85
2022-08-29T06:47:03.711Z,37.18
2022-08-29T06:48:07.231Z,35.35
2022-08-29T06:49:14.042Z,34.54
2022-08-29T06:50:20.247Z,33.20
2022-08-29T06:51:25.224Z,32.81
2022-08-29T06:52:30.197Z,31.35
2022-08-29T06:53:37.449Z,31.43
2022-08-29T06:54:41.676Z,30.48
2022-08-29T06:55:45.285Z,30.40
2022-08-29T06:56:52.444Z,29.92
2022-08-29T06:57:56.476Z,29.47
2022-08-29T06:59:01.709Z,30.27
2022-08-29T07:00:16.883Z,29.70
2022-08-29T07:01:19.242Z,28.39
2022-08-29T07:02:23.267Z,29.06
2022-08-29T07:03:33.981Z,28.30
2022-08-29T07:04:38.155Z,27.57
2022-08-29T07:05:43.140Z,28.20
2022-08-29T07:06:49.865Z,27.96
2022-08-29T07:07:55.556Z,27.85
2022-08-29T07:09:01.607Z,28.28
2022-08-29T07:10:06.309Z,27.80
2022-08-29T07:11:11.284Z,27.17
2022-08-29T07:12:16.566Z,26.69
2022-08-29T07:13:20.747Z,26.16
2022-08-29T07:14:25.436Z,25.81
2022-08-29T07:15:28.058Z,25.00
2022-08-29T07:16:36.308Z,24.83
2022-08-29T07:17:40.786Z,24.73
2022-08-29T07:18:46.949Z,25.07
2022-08-29T07:19:50.233Z,24.61
2022-08-29T07:20:58.644Z,25.33
2022-08-29T07:47:08.134Z,24.16
2022-08-29T07:48:12.861Z,24.37
2022-08-29T07:49:16.498Z,23.31
2022-08-29T07:50:22.061Z,23.16
2022-08-29T07:51:27.441Z,23.51
2022-08-29T07:52:37.979Z,23.76
2022-08-29T07:53:43.536Z,23.09
2022-08-29T07:54:47.310Z,22.94
2022-08-29T07:55:52.291Z,23.97
2022-08-29T07:57:01.378Z,23.55
2022-08-29T07:58:06.576Z,23.72
2022-08-29T07:59:10.779Z,24.57
2022-08-29T08:00:15.535Z,24.64
2022-08-29T08:01:21.538Z,25.53
2022-08-29T08:02:25.308Z,25.05
2022-08-29T08:03:29.561Z,25.71
2022-08-29T08:04:32.660Z,24.98
2022-08-29T08:05:38.698Z,25.61
2022-08-29T08:06:42.727Z,24.98
2022-08-29T08:07:48.753Z,25.19
2022-08-29T08:08:56.873Z,26.24
2022-08-29T08:10:00.970Z,27.30
2022-08-29T08:11:15.708Z,27.19
2022-08-29T08:12:19.436Z,27.54
2022-08-29T08:13:23.981Z,28.09
2022-08-29T08:14:35.082Z,29.36
2022-08-29T08:15:34.341Z,28.62
2022-08-29T08:16:38.231Z,27.79
2022-08-29T08:17:48.534Z,27.25
2022-08-29T08:18:53.274Z,27.61
2022-08-29T08:19:57.228Z,29.26
2022-08-29T08:21:01.779Z,28.13
2022-08-29T08:22:05.460Z,28.57
2022-08-29T08:23:14.864Z,28.72
2022-08-29T08:24:22.526Z,28.77
2022-08-29T08:25:26.177Z,28.58
2022-08-29T08:26:32.985Z,28.42
2022-08-29T08:27:41.065Z,28.80
2022-08-29T08:28:42.540Z,29.70
2022-08-29T08:29:45.369Z,29.25
2022-08-29T08:30:49.065Z,28.66
2022-08-29T08:31:52.856Z,28.71
2022-08-29T08:32:56.513Z,29.25
2022-08-29T08:34:01.475Z,29.71
2022-08-29T08:35:06.935Z,29.59
2022-08-29T08:36:20.757Z,28.97
2022-08-29T08:37:27.796Z,28.65
2022-08-29T08:38:29.540Z,28.71
2022-08-29T08:39:32.183Z,29.59
2022-08-29T08:40:39.844Z,28.83
2022-08-29T08:41:56.559Z,29.41
2022-08-29T08:43:03.564Z,28.50
2022-08-29T08:44:28.171Z,29.06
2022-08-29T08:45:40.788Z,29.16
2022-08-29T08:46:51.207Z,29.50
2022-08-29T08:48:08.127Z,29.46
2022-08-29T08:49:16.399Z,29.17
2022-08-29T08:50:42.983Z,28.97
2022-08-29T08:51:52.763Z,28.90
2022-08-29T08:53:09.127Z,29.92
2022-08-29T08:54:16.068Z,30.04
2022-08-29T08:55:32.369Z,28.59
2022-08-29T08:56:48.070Z,29.13
2022-08-29T08:57:55.615Z,29.15
2022-08-29T08:59:17.762Z,28.92
2022-08-29T09:00:24.699Z,28.67
2022-08-29T09:01:35.990Z,28.09
2022-08-29T09:03:07.453Z,29.02
2022-08-29T09:04:21.665Z,27.39
2022-08-29T09:05:39.502Z,27.76
2022-08-29T09:07:18.213Z,27.96
2022-08-29T09:08:44.103Z,28.20
2022-08-29T09:10:05.540Z,28.21
2022-08-29T09:11:29.133Z,29.01
2022-08-29T09:12:51.354Z,27.76
2022-08-29T09:14:14.643Z,27.96
2022-08-29T09:15:24.798Z,27.99
2022-08-29T09:16:41.809Z,27.59
2022-08-29T09:17:54.514Z,27.41
2022-08-29T09:19:03.760Z,27.58
2022-08-29T09:20:11.167Z,27.89
2022-08-29T09:21:39.986Z,27.59
2022-08-29T09:22:33.140Z,27.61
2022-08-29T09:24:01.224Z,28.35
2022-08-29T09:25:08.705Z,29.13
2022-08-29T09:26:15.603Z,29.12
2022-08-29T09:27:23.713Z,29.00
2022-08-29T09:28:30.486Z,28.58
2022-08-29T09:29:36.684Z,28.54
2022-08-29T09:30:48.057Z,28.11
2022-08-29T09:33:30.188Z,29.09
2022-08-29T09:35:04.395Z,28.74
2022-08-29T09:35:49.215Z,29.19
2022-08-29T09:36:57.492Z,28.27
2022-08-29T09:39:25.389Z,27.81
2022-08-29T09:40:51.153Z,27.88
2022-08-29T09:42:14.249Z,27.75
2022-08-29T09:43:21.473Z,28.20
2022-08-29T09:44:31.137Z,28.11
2022-08-29T09:45:34.336Z,27.34
2022-08-29T09:46:38.712Z,27.10
2022-08-29T09:47:41.376Z,26.70
2022-08-29T09:48:57.658Z,26.54
2022-08-29T09:50:24.710Z,26.54
2022-08-29T09:51:36.874Z,26.13
2022-08-29T09:53:01.681Z,26.46
2022-08-29T09:54:19.685Z,26.44
2022-08-29T09:55:45.301Z,27.10
2022-08-29T09:57:06.935Z,26.55
2022-08-29T09:58:20.442Z,26.32
2022-08-29T09:59:31.148Z,27.06
2022-08-29T10:00:45.280Z,27.02
2022-08-29T10:01:53.263Z,26.58
2022-08-29T10:03:03.908Z,26.89
2022-08-29T10:04:08.664Z,26.59
2022-08-29T10:05:44.053Z,27.23
2022-08-29T10:06:54.151Z,26.27
2022-08-29T10:08:07.750Z,26.05
2022-08-29T10:09:16.696Z,26.58
2022-08-29T10:10:23.980Z,27.17
2022-08-29T10:11:55.739Z,26.25
2022-08-29T10:13:07.540Z,27.14
2022-08-29T10:14:23.915Z,26.39
2022-08-29T10:15:51.694Z,26.99
2022-08-29T10:16:56.996Z,26.53
2022-08-29T10:18:29.347Z,26.13
2022-08-29T10:19:34.549Z,26.58
2022-08-29T10:21:11.326Z,26.76
2022-08-29T10:22:33.913Z,26.34
2022-08-29T10:23:53.705Z,26.26
2022-08-29T10:25:03.728Z,26.59
2022-08-29T10:26:14.622Z,26.92
2022-08-29T10:27:22.327Z,26.37
2022-08-29T10:28:42.972Z,26.22
2022-08-29T10:29:55.690Z,25.74
2022-08-29T10:31:10.496Z,24.48
2022-08-29T10:32:43.055Z,24.03
2022-08-29T10:33:54.704Z,24.01
2022-08-29T10:35:17.230Z,24.18
2022-08-29T10:36:35.302Z,24.41
2022-08-29T10:37:44.693Z,24.37
2022-08-29T10:39:10.052Z,24.85
2022-08-29T10:41:50.590Z,23.92
2022-08-29T10:43:00.905Z,24.28
2022-08-29T10:44:26.678Z,24.09
2022-08-29T10:45:37.640Z,24.56
2022-08-29T10:46:51.557Z,24.57
2022-08-29T10:48:00.944Z,24.49
2022-08-29T10:49:26.521Z,25.14
2022-08-29T10:50:44.981Z,24.51
2022-08-29T10:52:04.839Z,24.32
2022-08-29T10:53:17.158Z,23.93
2022-08-29T10:54:40.645Z,24.21
2022-08-29T10:55:51.475Z,23.94
2022-08-29T10:56:58.030Z,24.26
2022-08-29T10:58:12.586Z,24.08
2022-08-29T10:59:30.394Z,24.73
2022-08-29T11:00:47.070Z,24.87
2022-08-29T11:01:54.766Z,24.73
2022-08-29T11:03:11.743Z,23.99
2022-08-29T11:04:40.391Z,24.14
2022-08-29T11:05:47.613Z,24.08
2022-08-29T11:07:05.807Z,24.53
2022-08-29T11:08:18.185Z,24.54
2022-08-29T11:09:51.530Z,24.51
2022-08-29T11:10:55.726Z,24.51
2022-08-29T11:12:19.093Z,24.35
2022-08-29T11:13:29.332Z,24.19
2022-08-29T11:14:37.714Z,24.82
2022-08-29T11:15:45.718Z,24.45
2022-08-29T11:16:55.399Z,24.57
2022-08-29T11:18:11.961Z,24.60
2022-08-29T11:19:37.380Z,24.73
2022-08-29T11:20:45.425Z,24.11
2022-08-29T11:22:11.213Z,24.01
2022-08-29T11:23:21.338Z,24.12
2022-08-29T11:24:32.922Z,24.21
2022-08-29T11:25:37.152Z,24.38
2022-08-29T11:26:47.545Z,24.37
2022-08-29T11:28:08.642Z,24.29
2022-08-29T11:29:25.201Z,24.83
2022-08-29T11:30:36.333Z,25.06
2022-08-29T11:31:59.873Z,24.95
2022-08-29T11:33:16.023Z,25.07
2022-08-29T11:34:50.159Z,24.95
2022-08-29T11:36:14.503Z,25.33
2022-08-29T11:37:45.642Z,25.31
2022-08-29T11:39:20.367Z,25.07
2022-08-29T11:42:15.266Z,25.30
2022-08-29T11:43:26.804Z,25.18
2022-08-29T11:44:34.109Z,25.63
2022-08-29T11:45:40.817Z,25.53
2022-08-29T11:46:53.605Z,25.42
2022-08-29T11:48:01.194Z,25.71
2022-08-29T11:49:31.127Z,24.81
2022-08-29T11:50:39.814Z,24.60
2022-08-29T11:51:43.847Z,24.57
2022-08-29T11:53:09.319Z,24.62
2022-08-29T11:54:29.057Z,24.75
2022-08-29T11:55:42.376Z,24.59
2022-08-29T11:56:46.889Z,25.47
2022-08-29T11:59:04.369Z,25.24
2022-08-29T12:00:11.898Z,25.26
2022-08-29T12:01:42.996Z,24.49
2022-08-29T12:02:49.058Z,24.89
2022-08-29T12:03:56.930Z,25.36
2022-08-29T12:05:06.741Z,25.05
2022-08-29T12:06:37.094Z,24.67
2022-08-29T12:07:58.512Z,25.18
2022-08-29T12:09:17.381Z,25.61
2022-08-29T12:10:24.927Z,25.15
2022-08-29T12:11:58.210Z,25.05
2022-08-29T12:13:06.364Z,25.18
2022-08-29T12:14:09.109Z,24.72
2022-08-29T12:15:34.029Z,25.02
2022-08-29T12:16:51.448Z,25.15
2022-08-29T12:18:02.857Z,25.04
2022-08-29T12:19:04.962Z,25.10
2022-08-29T12:20:30.920Z,24.84
2022-08-29T12:21:41.502Z,25.00
2022-08-29T12:24:35.180Z,26.02
2022-08-29T12:25:55.262Z,26.06
2022-08-29T12:26:54.684Z,26.15
2022-08-29T12:28:02.892Z,26.44
2022-08-29T12:29:10.582Z,26.21
2022-08-29T12:30:13.968Z,25.83
2022-08-29T12:31:21.591Z,25.96
2022-08-29T12:32:32.151Z,25.92
2022-08-29T12:33:59.084Z,26.12
2022-08-29T12:35:34.489Z,26.32
2022-08-29T12:36:52.577Z,26.47
2022-08-29T12:38:03.284Z,26.00
2022-08-29T12:39:19.737Z,26.17
2022-08-29T12:42:10.830Z,25.96
2022-08-29T12:43:32.764Z,26.11
2022-08-29T12:44:42.928Z,26.37
2022-08-29T12:45:49.724Z,26.30
2022-08-29T12:47:03.191Z,26.50
2022-08-29T12:48:10.459Z,26.71
2022-08-29T12:49:27.880Z,27.04
2022-08-29T12:50:37.230Z,27.60
2022-08-29T12:51:43.324Z,27.45
2022-08-29T12:53:05.574Z,27.43
2022-08-29T12:54:12.624Z,27.34
2022-08-29T12:55:29.098Z,27.40
2022-08-29T12:56:35.586Z,27.48
2022-08-29T12:57:41.594Z,27.46
2022-08-29T12:58:54.874Z,27.21
2022-08-29T13:00:08.814Z,27.35
2022-08-29T13:01:31.696Z,27.29
2022-08-29T13:04:04.148Z,27.43
2022-08-29T13:05:28.416Z,27.08
2022-08-29T13:06:31.408Z,26.82
2022-08-29T13:07:36.091Z,27.24
2022-08-29T13:08:40.617Z,27.50
2022-08-29T13:09:56.785Z,27.73
2022-08-29T13:12:38.560Z,27.37
2022-08-29T13:13:44.252Z,27.39
2022-08-29T13:14:50.513Z,27.28
2022-08-29T13:15:55.603Z,27.18
2022-08-29T13:16:59.858Z,27.19
2022-08-29T13:18:03.914Z,27.18
2022-08-29T13:19:22.247Z,27.55
2022-08-29T13:20:43.522Z,27.56
2022-08-29T13:21:47.264Z,26.76
2022-08-29T13:22:50.941Z,27.12
2022-08-29T13:25:17.809Z,26.99
2022-08-29T13:26:27.286Z,27.43
2022-08-29T13:27:34.207Z,27.45
2022-08-29T13:30:24.593Z,27.36
2022-08-29T13:31:30.721Z,27.75
2022-08-29T13:32:34.972Z,27.95
2022-08-29T13:33:42.727Z,27.68
2022-08-29T13:36:51.046Z,27.24
2022-08-29T13:39:48.893Z,27.00
2022-08-29T13:40:57.505Z,27.06
2022-08-29T13:42:06.306Z,27.06
2022-08-29T13:43:33.920Z,26.97
2022-08-29T13:44:41.203Z,27.18
2022-08-29T13:45:47.819Z,27.45
2022-08-29T13:46:53.985Z,27.76
2022-08-29T13:48:01.253Z,27.82
2022-08-29T13:49:04.707Z,27.57
2022-08-29T13:50:12.663Z,27.57
2022-08-29T13:51:18.319Z,27.90
2022-08-29T13:52:23.227Z,28.04
2022-08-29T13:53:29.132Z,27.87
2022-08-29T13:54:34.551Z,27.91
2022-08-29T13:55:40.675Z,28.17
2022-08-29T13:56:59.688Z,28.39
2022-08-29T13:58:06.007Z,28.28
2022-08-29T13:59:12.440Z,28.58
2022-08-29T14:00:18.595Z,28.95
2022-08-29T14:02:08.573Z,29.07
2022-08-29T14:02:32.324Z,28.68
2022-08-29T14:03:37.520Z,28.62
2022-08-29T14:04:50.199Z,28.96
2022-08-29T14:05:57.753Z,29.29
2022-08-29T14:07:03.211Z,29.49
2022-08-29T14:08:08.911Z,29.66
2022-08-29T14:09:19.612Z,29.63
2022-08-29T14:10:24.502Z,29.43
2022-08-29T14:11:31.991Z,29.49
2022-08-29T14:12:37.547Z,29.62
2022-08-29T14:13:42.559Z,29.66
2022-08-29T14:14:48.111Z,29.86
2022-08-29T14:15:52.079Z,29.68
2022-08-29T14:16:57.512Z,29.71
2022-08-29T14:18:05.526Z,29.61
2022-08-29T14:19:10.229Z,29.66
2022-08-29T14:20:14.976Z,29.67
2022-08-29T14:21:22.093Z,29.92
2022-08-29T14:22:25.946Z,30.01
2022-08-29T14:23:29.932Z,30.18
2022-08-29T14:24:35.737Z,30.17
2022-08-29T14:25:38.407Z,30.13
2022-08-29T14:26:46.443Z,30.18
2022-08-29T14:27:55.147Z,30.22
2022-08-29T14:29:03.517Z,30.16
2022-08-29T14:30:10.735Z,30.15
2022-08-29T14:31:13.370Z,30.23
2022-08-29T14:32:16.987Z,30.28
2022-08-29T14:33:21.041Z,30.28
2022-08-29T14:34:25.390Z,30.16
2022-08-29T14:35:33.038Z,30.36
2022-08-29T14:36:47.495Z,30.22
2022-08-29T14:37:45.168Z,30.17
2022-08-29T14:38:48.567Z,30.23
2022-08-29T14:39:51.585Z,30.39
2022-08-29T14:41:02.089Z,30.58
2022-08-29T14:42:06.476Z,30.28
2022-08-29T14:43:10.022Z,30.55
2022-08-29T14:44:20.237Z,30.41
2022-08-29T14:45:25.735Z,30.51
2022-08-29T14:46:30.528Z,30.52
2022-08-29T14:47:34.468Z,30.42
2022-08-29T14:48:39.154Z,30.21
2022-08-29T14:49:46.595Z,30.07
2022-08-29T14:50:50.833Z,30.01
2022-08-29T14:51:57.206Z,29.94
2022-08-29T14:53:02.247Z,30.02
2022-08-29T14:54:06.054Z,29.72
2022-08-29T14:55:13.962Z,29.54
2022-08-29T14:56:37.480Z,29.59
2022-08-29T14:57:24.422Z,29.52
2022-08-29T14:58:28.210Z,29.99
2022-08-29T14:59:38.034Z,29.86
2022-08-29T15:00:43.167Z,30.04
2022-08-29T15:01:52.947Z,30.54
2022-08-29T15:02:54.205Z,30.52
2022-08-29T15:03:59.014Z,30.76
2022-08-29T15:05:05.283Z,30.81
2022-08-29T15:06:08.450Z,30.72
2022-08-29T15:07:14.107Z,30.81
2022-08-29T15:08:19.004Z,31.15
2022-08-29T15:09:23.308Z,31.07
2022-08-29T15:10:28.215Z,31.16
2022-08-29T15:11:37.752Z,31.12
2022-08-29T15:12:41.803Z,31.22
2022-08-29T15:13:45.371Z,31.24
2022-08-29T15:14:52.118Z,31.49
2022-08-29T15:15:56.172Z,31.54
2022-08-29T15:17:01.582Z,31.67
2022-08-29T15:18:12.254Z,31.66
2022-08-29T15:19:45.114Z,31.88
2022-08-29T15:20:38.780Z,32.01
2022-08-29T15:21:27.179Z,31.89
2022-08-29T15:22:36.640Z,31.93
2022-08-29T15:23:43.077Z,31.85
2022-08-29T15:24:47.649Z,32.01
2022-08-29T15:25:52.358Z,32.06
2022-08-29T15:26:56.085Z,32.22
2022-08-29T15:27:59.557Z,32.28
2022-08-29T15:29:03.653Z,32.20
2022-08-29T15:30:09.662Z,32.33
2022-08-29T15:31:13.613Z,32.48
2022-08-29T15:32:20.111Z,32.65